Terminal Aerodrome Forecast
Issued by NWS Wilmington, OH

Current Version | Previous Version | Text Only | Print | Product List | Glossary Off
Versions: 1 2 3 4 5 6 7 8 9 10 11 12 13 14 15 16 17 18 19 20 21 22 23 24

000
FTUS41 KILN 230340 AAA
TAFCMH
TAF AMD
KCMH 230340Z 2304/2324 12006KT P6SM BKN009 OVC019
     FM230500 10004KT 5SM BR VCSH OVC008
     FM231200 14008KT 2SM SHRA BR OVC008
     FM231800 21011KT P6SM VCSH OVC008
     FM232200 27008KT P6SM OVC015=

USA.gov is the U.S. government's official web portal to all federal, state and local government web resources and services.